sensor_id;sensor_type;location;lat;lon;timestamp;temperature;humidity
70807;DHT22;58882;52.170;5.386;2024-02-15T00:00:04;19.40;57.90
70807;DHT22;58882;52.170;5.386;2024-02-15T00:02:31;19.40;57.80
70807;DHT22;58882;52.170;5.386;2024-02-15T00:04:58;19.40;57.80
70807;DHT22;58882;52.170;5.386;2024-02-15T00:07:25;19.40;57.70
70807;DHT22;58882;52.170;5.386;2024-02-15T00:09:53;19.40;57.80
70807;DHT22;58882;52.170;5.386;2024-02-15T00:12:20;19.40;57.80
70807;DHT22;58882;52.170;5.386;2024-02-15T00:14:47;19.40;57.80
70807;DHT22;58882;52.170;5.386;2024-02-15T00:17:15;19.40;58.00
70807;DHT22;58882;52.170;5.386;2024-02-15T00:19:41;19.40;58.00
70807;DHT22;58882;52.170;5.386;2024-02-15T00:22:09;19.40;58.10
70807;DHT22;58882;52.170;5.386;2024-02-15T00:24:37;19.40;58.10
70807;DHT22;58882;52.170;5.386;2024-02-15T00:27:05;19.40;58.20
70807;DHT22;58882;52.170;5.386;2024-02-15T00:29:32;19.40;58.20
70807;DHT22;58882;52.170;5.386;2024-02-15T00:32:01;19.40;58.20
70807;DHT22;58882;52.170;5.386;2024-02-15T00:34:30;19.40;58.30
70807;DHT22;58882;52.170;5.386;2024-02-15T00:36:57;19.40;58.20
70807;DHT22;58882;52.170;5.386;2024-02-15T00:39:24;19.40;58.10
70807;DHT22;58882;52.170;5.386;2024-02-15T00:41:51;19.40;58.00
70807;DHT22;58882;52.170;5.386;2024-02-15T00:44:18;19.40;58.00
70807;DHT22;58882;52.170;5.386;2024-02-15T00:46:45;19.40;57.90
70807;DHT22;58882;52.170;5.386;2024-02-15T00:49:13;19.40;57.80
70807;DHT22;58882;52.170;5.386;2024-02-15T00:51:40;19.50;57.80
70807;DHT22;58882;52.170;5.386;2024-02-15T00:54:07;19.40;57.70
70807;DHT22;58882;52.170;5.386;2024-02-15T00:56:34;19.50;57.80
70807;DHT22;58882;52.170;5.386;2024-02-15T00:59:01;19.40;57.70
70807;DHT22;58882;52.170;5.386;2024-02-15T01:01:28;19.40;57.70
70807;DHT22;58882;52.170;5.386;2024-02-15T01:03:55;19.40;57.80
70807;DHT22;58882;52.170;5.386;2024-02-15T01:06:22;19.40;57.80
70807;DHT22;58882;52.170;5.386;2024-02-15T01:08:49;19.50;57.90
70807;DHT22;58882;52.170;5.386;2024-02-15T01:11:16;19.40;57.80
70807;DHT22;58882;52.170;5.386;2024-02-15T01:13:43;19.40;57.80
70807;DHT22;58882;52.170;5.386;2024-02-15T01:16:11;19.40;57.70
70807;DHT22;58882;52.170;5.386;2024-02-15T01:18:38;19.40;58.70
70807;DHT22;58882;52.170;5.386;2024-02-15T01:21:05;19.40;57.70
70807;DHT22;58882;52.170;5.386;2024-02-15T01:23:33;19.40;57.70
70807;DHT22;58882;52.170;5.386;2024-02-15T01:26:03;19.40;57.70
70807;DHT22;58882;52.170;5.386;2024-02-15T01:28:31;19.40;57.70
70807;DHT22;58882;52.170;5.386;2024-02-15T01:30:59;19.40;57.70
70807;DHT22;58882;52.170;5.386;2024-02-15T01:33:26;19.40;57.70
70807;DHT22;58882;52.170;5.386;2024-02-15T01:35:54;19.40;57.50
70807;DHT22;58882;52.170;5.386;2024-02-15T01:38:21;19.40;58.50
70807;DHT22;58882;52.170;5.386;2024-02-15T01:40:48;19.40;57.40
70807;DHT22;58882;52.170;5.386;2024-02-15T01:43:15;19.40;57.50
70807;DHT22;58882;52.170;5.386;2024-02-15T01:45:42;19.40;57.60
70807;DHT22;58882;52.170;5.386;2024-02-15T01:48:10;19.40;57.60
70807;DHT22;58882;52.170;5.386;2024-02-15T01:50:38;19.40;57.70
70807;DHT22;58882;52.170;5.386;2024-02-15T01:53:07;19.40;57.70
70807;DHT22;58882;52.170;5.386;2024-02-15T01:55:38;19.40;57.60
70807;DHT22;58882;52.170;5.386;2024-02-15T01:58:06;19.40;57.60
70807;DHT22;58882;52.170;5.386;2024-02-15T02:00:34;19.30;57.50
70807;DHT22;58882;52.170;5.386;2024-02-15T02:03:03;19.40;57.70
70807;DHT22;58882;52.170;5.386;2024-02-15T02:05:31;19.30;57.60
70807;DHT22;58882;52.170;5.386;2024-02-15T02:07:58;19.40;57.70
70807;DHT22;58882;52.170;5.386;2024-02-15T02:10:25;19.40;57.70
70807;DHT22;58882;52.170;5.386;2024-02-15T02:12:54;19.40;57.70
70807;DHT22;58882;52.170;5.386;2024-02-15T02:15:21;19.30;57.70
70807;DHT22;58882;52.170;5.386;2024-02-15T02:17:51;19.30;57.60
70807;DHT22;58882;52.170;5.386;2024-02-15T02:20:18;19.30;57.60
70807;DHT22;58882;52.170;5.386;2024-02-15T02:22:48;19.30;57.60
70807;DHT22;58882;52.170;5.386;2024-02-15T02:25:17;19.30;57.70
70807;DHT22;58882;52.170;5.386;2024-02-15T02:27:45;19.30;57.60
70807;DHT22;58882;52.170;5.386;2024-02-15T02:30:15;19.40;57.70
70807;DHT22;58882;52.170;5.386;2024-02-15T02:32:47;19.40;57.70
70807;DHT22;58882;52.170;5.386;2024-02-15T02:35:15;19.40;57.80
70807;DHT22;58882;52.170;5.386;2024-02-15T02:37:43;19.30;57.60
70807;DHT22;58882;52.170;5.386;2024-02-15T02:40:10;19.30;57.80
70807;DHT22;58882;52.170;5.386;2024-02-15T02:42:52;19.40;57.70
70807;DHT22;58882;52.170;5.386;2024-02-15T02:45:19;19.30;57.60
70807;DHT22;58882;52.170;5.386;2024-02-15T02:47:49;19.30;57.60
70807;DHT22;58882;52.170;5.386;2024-02-15T02:50:23;19.30;57.60
70807;DHT22;58882;52.170;5.386;2024-02-15T02:52:50;19.30;57.60
70807;DHT22;58882;52.170;5.386;2024-02-15T02:55:18;19.30;57.60
70807;DHT22;58882;52.170;5.386;2024-02-15T02:57:45;19.30;57.60
70807;DHT22;58882;52.170;5.386;2024-02-15T03:00:14;19.30;57.80
70807;DHT22;58882;52.170;5.386;2024-02-15T03:02:43;19.30;57.90
70807;DHT22;58882;52.170;5.386;2024-02-15T03:05:10;19.30;57.90
70807;DHT22;58882;52.170;5.386;2024-02-15T03:07:39;19.30;57.90
70807;DHT22;58882;52.170;5.386;2024-02-15T03:10:09;19.40;57.90
70807;DHT22;58882;52.170;5.386;2024-02-15T03:12:37;19.40;57.90
70807;DHT22;58882;52.170;5.386;2024-02-15T03:15:05;19.30;57.80
70807;DHT22;58882;52.170;5.386;2024-02-15T03:17:45;19.30;57.80
70807;DHT22;58882;52.170;5.386;2024-02-15T03:20:12;19.30;58.80
70807;DHT22;58882;52.170;5.386;2024-02-15T03:22:52;19.30;57.70
70807;DHT22;58882;52.170;5.386;2024-02-15T03:25:20;19.30;57.90
70807;DHT22;58882;52.170;5.386;2024-02-15T03:27:51;19.30;57.90
70807;DHT22;58882;52.170;5.386;2024-02-15T03:30:24;19.40;58.10
70807;DHT22;58882;52.170;5.386;2024-02-15T03:32:51;19.40;58.00
70807;DHT22;58882;52.170;5.386;2024-02-15T03:35:20;19.30;57.90
70807;DHT22;58882;52.170;5.386;2024-02-15T03:37:49;19.30;58.00
70807;DHT22;58882;52.170;5.386;2024-02-15T03:40:20;19.30;57.90
70807;DHT22;58882;52.170;5.386;2024-02-15T03:42:47;19.40;58.00
70807;DHT22;58882;52.170;5.386;2024-02-15T03:45:14;19.40;58.10
70807;DHT22;58882;52.170;5.386;2024-02-15T03:47:42;19.40;58.10
70807;DHT22;58882;52.170;5.386;2024-02-15T03:50:10;19.40;58.20
70807;DHT22;58882;52.170;5.386;2024-02-15T03:52:37;19.30;58.10
70807;DHT22;58882;52.170;5.386;2024-02-15T03:55:05;19.30;58.10
70807;DHT22;58882;52.170;5.386;2024-02-15T03:57:35;19.30;58.10
70807;DHT22;58882;52.170;5.386;2024-02-15T04:00:02;19.40;58.20
70807;DHT22;58882;52.170;5.386;2024-02-15T04:02:35;19.40;58.20
70807;DHT22;58882;52.170;5.386;2024-02-15T04:05:02;19.40;58.10
70807;DHT22;58882;52.170;5.386;2024-02-15T04:07:31;19.30;58.00
70807;DHT22;58882;52.170;5.386;2024-02-15T04:09:59;19.30;58.10
70807;DHT22;58882;52.170;5.386;2024-02-15T04:12:27;19.30;58.10
70807;DHT22;58882;52.170;5.386;2024-02-15T04:14:54;19.40;58.10
70807;DHT22;58882;52.170;5.386;2024-02-15T04:17:21;19.30;58.00
70807;DHT22;58882;52.170;5.386;2024-02-15T04:19:49;19.40;58.10
70807;DHT22;58882;52.170;5.386;2024-02-15T04:22:20;19.30;58.10
70807;DHT22;58882;52.170;5.386;2024-02-15T04:24:47;19.30;58.00
70807;DHT22;58882;52.170;5.386;2024-02-15T04:27:14;19.30;58.10
70807;DHT22;58882;52.170;5.386;2024-02-15T04:29:41;19.30;58.10
70807;DHT22;58882;52.170;5.386;2024-02-15T04:32:11;19.30;58.50
70807;DHT22;58882;52.170;5.386;2024-02-15T04:34:39;19.30;58.00
70807;DHT22;58882;52.170;5.386;2024-02-15T04:37:07;19.30;58.10
70807;DHT22;58882;52.170;5.386;2024-02-15T04:39:34;19.30;58.00
70807;DHT22;58882;52.170;5.386;2024-02-15T04:42:02;19.30;58.00
70807;DHT22;58882;52.170;5.386;2024-02-15T04:44:29;19.30;58.00
70807;DHT22;58882;52.170;5.386;2024-02-15T04:46:56;19.30;57.80
70807;DHT22;58882;52.170;5.386;2024-02-15T04:49:24;19.30;57.90
70807;DHT22;58882;52.170;5.386;2024-02-15T04:51:51;19.30;58.00
70807;DHT22;58882;52.170;5.386;2024-02-15T04:54:18;19.30;58.00
70807;DHT22;58882;52.170;5.386;2024-02-15T04:56:45;19.30;58.00
70807;DHT22;58882;52.170;5.386;2024-02-15T04:59:13;19.30;58.00
70807;DHT22;58882;52.170;5.386;2024-02-15T05:01:42;19.30;57.90
70807;DHT22;58882;52.170;5.386;2024-02-15T05:04:12;19.30;58.00
70807;DHT22;58882;52.170;5.386;2024-02-15T05:06:40;19.30;58.00
70807;DHT22;58882;52.170;5.386;2024-02-15T05:09:07;19.40;58.00
70807;DHT22;58882;52.170;5.386;2024-02-15T05:11:37;19.30;57.90
70807;DHT22;58882;52.170;5.386;2024-02-15T05:14:08;19.30;57.90
70807;DHT22;58882;52.170;5.386;2024-02-15T05:16:35;19.30;57.80
70807;DHT22;58882;52.170;5.386;2024-02-15T05:19:09;19.30;57.80
70807;DHT22;58882;52.170;5.386;2024-02-15T05:21:39;19.30;57.80
70807;DHT22;58882;52.170;5.386;2024-02-15T05:24:06;19.30;57.80
70807;DHT22;58882;52.170;5.386;2024-02-15T05:26:33;19.30;57.70
70807;DHT22;58882;52.170;5.386;2024-02-15T05:29:00;19.30;57.70
70807;DHT22;58882;52.170;5.386;2024-02-15T05:31:27;19.40;57.80
70807;DHT22;58882;52.170;5.386;2024-02-15T05:33:54;19.30;57.90
70807;DHT22;58882;52.170;5.386;2024-02-15T05:36:21;19.30;57.90
70807;DHT22;58882;52.170;5.386;2024-02-15T05:38:52;19.30;58.00
70807;DHT22;58882;52.170;5.386;2024-02-15T05:41:20;19.30;58.10
70807;DHT22;58882;52.170;5.386;2024-02-15T05:43:47;19.30;58.10
70807;DHT22;58882;52.170;5.386;2024-02-15T05:46:19;19.40;58.10
70807;DHT22;58882;52.170;5.386;2024-02-15T05:48:50;19.40;58.10
70807;DHT22;58882;52.170;5.386;2024-02-15T05:51:18;19.30;58.00
70807;DHT22;58882;52.170;5.386;2024-02-15T05:53:45;19.40;58.00
70807;DHT22;58882;52.170;5.386;2024-02-15T05:56:12;19.30;58.00
70807;DHT22;58882;52.170;5.386;2024-02-15T05:58:40;19.40;58.20
70807;DHT22;58882;52.170;5.386;2024-02-15T06:01:07;19.30;58.10
70807;DHT22;58882;52.170;5.386;2024-02-15T06:03:38;19.30;58.00
70807;DHT22;58882;52.170;5.386;2024-02-15T06:06:07;19.30;57.90
70807;DHT22;58882;52.170;5.386;2024-02-15T06:08:35;19.30;57.90
70807;DHT22;58882;52.170;5.386;2024-02-15T06:11:03;19.40;57.90
70807;DHT22;58882;52.170;5.386;2024-02-15T06:13:31;19.30;57.80
70807;DHT22;58882;52.170;5.386;2024-02-15T06:15:58;19.30;57.80
70807;DHT22;58882;52.170;5.386;2024-02-15T06:18:29;19.40;57.80
70807;DHT22;58882;52.170;5.386;2024-02-15T06:20:57;19.30;57.60
70807;DHT22;58882;52.170;5.386;2024-02-15T06:23:24;19.30;57.60
70807;DHT22;58882;52.170;5.386;2024-02-15T06:25:54;19.40;57.70
70807;DHT22;58882;52.170;5.386;2024-02-15T06:28:22;19.30;57.60
70807;DHT22;58882;52.170;5.386;2024-02-15T06:31:08;19.40;57.70
70807;DHT22;58882;52.170;5.386;2024-02-15T06:33:54;19.30;57.60
70807;DHT22;58882;52.170;5.386;2024-02-15T06:39:28;19.40;57.40
70807;DHT22;58882;52.170;5.386;2024-02-15T06:42:05;19.30;57.50
70807;DHT22;58882;52.170;5.386;2024-02-15T06:44:33;19.40;57.60
70807;DHT22;58882;52.170;5.386;2024-02-15T06:47:00;19.40;58.60
70807;DHT22;58882;52.170;5.386;2024-02-15T06:49:27;19.30;57.60
70807;DHT22;58882;52.170;5.386;2024-02-15T06:51:55;19.30;57.60
70807;DHT22;58882;52.170;5.386;2024-02-15T06:54:21;19.40;57.70
70807;DHT22;58882;52.170;5.386;2024-02-15T06:56:49;19.30;57.60
70807;DHT22;58882;52.170;5.386;2024-02-15T06:59:18;19.30;57.60
70807;DHT22;58882;52.170;5.386;2024-02-15T07:01:46;19.40;57.70
70807;DHT22;58882;52.170;5.386;2024-02-15T07:04:13;19.40;57.70
70807;DHT22;58882;52.170;5.386;2024-02-15T07:06:40;19.30;57.50
70807;DHT22;58882;52.170;5.386;2024-02-15T07:09:07;19.40;57.60
70807;DHT22;58882;52.170;5.386;2024-02-15T07:11:34;19.30;57.50
70807;DHT22;58882;52.170;5.386;2024-02-15T07:14:02;19.40;57.70
70807;DHT22;58882;52.170;5.386;2024-02-15T07:16:31;19.40;57.70
70807;DHT22;58882;52.170;5.386;2024-02-15T07:18:59;19.40;57.70
70807;DHT22;58882;52.170;5.386;2024-02-15T07:21:26;19.40;57.60
70807;DHT22;58882;52.170;5.386;2024-02-15T07:23:54;19.30;57.60
70807;DHT22;58882;52.170;5.386;2024-02-15T07:26:23;19.30;57.50
70807;DHT22;58882;52.170;5.386;2024-02-15T07:28:52;19.40;57.60
70807;DHT22;58882;52.170;5.386;2024-02-15T07:31:20;19.40;57.60
70807;DHT22;58882;52.170;5.386;2024-02-15T07:33:50;19.30;57.50
70807;DHT22;58882;52.170;5.386;2024-02-15T07:36:22;19.30;57.50
70807;DHT22;58882;52.170;5.386;2024-02-15T07:38:50;19.20;57.60
70807;DHT22;58882;52.170;5.386;2024-02-15T07:41:19;19.10;57.80
70807;DHT22;58882;52.170;5.386;2024-02-15T07:43:50;19.10;58.00
70807;DHT22;58882;52.170;5.386;2024-02-15T07:46:17;19.00;58.10
70807;DHT22;58882;52.170;5.386;2024-02-15T07:48:44;19.00;58.20
70807;DHT22;58882;52.170;5.386;2024-02-15T07:51:13;18.90;58.30
70807;DHT22;58882;52.170;5.386;2024-02-15T07:53:42;18.90;58.40
70807;DHT22;58882;52.170;5.386;2024-02-15T07:56:10;18.90;58.30
70807;DHT22;58882;52.170;5.386;2024-02-15T07:58:44;18.80;58.50
70807;DHT22;58882;52.170;5.386;2024-02-15T08:01:19;18.80;58.70
70807;DHT22;58882;52.170;5.386;2024-02-15T08:03:52;18.80;59.60
70807;DHT22;58882;52.170;5.386;2024-02-15T08:06:21;18.80;58.70
70807;DHT22;58882;52.170;5.386;2024-02-15T08:08:52;18.70;58.90
70807;DHT22;58882;52.170;5.386;2024-02-15T08:11:19;18.70;59.00
70807;DHT22;58882;52.170;5.386;2024-02-15T08:13:48;18.70;59.10
70807;DHT22;58882;52.170;5.386;2024-02-15T08:16:18;18.60;59.20
70807;DHT22;58882;52.170;5.386;2024-02-15T08:18:45;18.70;59.20
70807;DHT22;58882;52.170;5.386;2024-02-15T08:21:15;18.70;59.20
70807;DHT22;58882;52.170;5.386;2024-02-15T08:23:42;18.70;59.10
70807;DHT22;58882;52.170;5.386;2024-02-15T08:26:10;18.70;59.10
70807;DHT22;58882;52.170;5.386;2024-02-15T08:28:39;18.60;60.10
70807;DHT22;58882;52.170;5.386;2024-02-15T08:31:06;18.70;59.20
70807;DHT22;58882;52.170;5.386;2024-02-15T08:33:36;18.70;59.20
70807;DHT22;58882;52.170;5.386;2024-02-15T08:36:05;18.70;59.20
70807;DHT22;58882;52.170;5.386;2024-02-15T08:38:33;18.70;59.20
70807;DHT22;58882;52.170;5.386;2024-02-15T08:41:01;18.70;59.20
70807;DHT22;58882;52.170;5.386;2024-02-15T08:43:27;18.70;59.30
70807;DHT22;58882;52.170;5.386;2024-02-15T08:45:54;18.70;59.40
70807;DHT22;58882;52.170;5.386;2024-02-15T08:48:21;18.60;59.40
70807;DHT22;58882;52.170;5.386;2024-02-15T08:50:49;18.60;59.50
70807;DHT22;58882;52.170;5.386;2024-02-15T08:53:16;18.60;59.50
70807;DHT22;58882;52.170;5.386;2024-02-15T08:55:46;18.60;59.50
70807;DHT22;58882;52.170;5.386;2024-02-15T08:58:13;18.60;59.60
70807;DHT22;58882;52.170;5.386;2024-02-15T09:00:40;18.60;59.60
70807;DHT22;58882;52.170;5.386;2024-02-15T09:03:11;18.50;59.60
70807;DHT22;58882;52.170;5.386;2024-02-15T09:05:39;18.50;59.70
70807;DHT22;58882;52.170;5.386;2024-02-15T09:08:07;18.50;59.80
70807;DHT22;58882;52.170;5.386;2024-02-15T09:10:34;18.50;59.80
70807;DHT22;58882;52.170;5.386;2024-02-15T09:13:03;18.50;59.80
70807;DHT22;58882;52.170;5.386;2024-02-15T09:15:30;18.50;59.80
70807;DHT22;58882;52.170;5.386;2024-02-15T09:17:57;18.50;59.70
70807;DHT22;58882;52.170;5.386;2024-02-15T09:20:24;18.50;59.80
70807;DHT22;58882;52.170;5.386;2024-02-15T09:22:55;18.50;59.80
70807;DHT22;58882;52.170;5.386;2024-02-15T09:25:23;18.50;59.80
70807;DHT22;58882;52.170;5.386;2024-02-15T09:27:51;18.50;59.90
70807;DHT22;58882;52.170;5.386;2024-02-15T09:30:18;18.50;59.90
70807;DHT22;58882;52.170;5.386;2024-02-15T09:32:45;18.50;59.90
70807;DHT22;58882;52.170;5.386;2024-02-15T09:35:13;18.50;60.00
70807;DHT22;58882;52.170;5.386;2024-02-15T09:37:48;18.50;59.90
70807;DHT22;58882;52.170;5.386;2024-02-15T09:40:17;18.50;59.80
70807;DHT22;58882;52.170;5.386;2024-02-15T09:42:45;18.50;59.80
70807;DHT22;58882;52.170;5.386;2024-02-15T09:45:13;18.50;59.70
70807;DHT22;58882;52.170;5.386;2024-02-15T09:47:45;18.50;59.70
70807;DHT22;58882;52.170;5.386;2024-02-15T09:50:14;18.60;59.70
70807;DHT22;58882;52.170;5.386;2024-02-15T09:52:52;18.60;59.60
70807;DHT22;58882;52.170;5.386;2024-02-15T09:55:20;18.60;59.60
70807;DHT22;58882;52.170;5.386;2024-02-15T09:57:50;18.60;60.50
70807;DHT22;58882;52.170;5.386;2024-02-15T10:00:18;18.60;59.50
70807;DHT22;58882;52.170;5.386;2024-02-15T10:02:47;18.60;59.60
70807;DHT22;58882;52.170;5.386;2024-02-15T10:05:16;18.60;59.40
70807;DHT22;58882;52.170;5.386;2024-02-15T10:07:44;18.60;59.40
70807;DHT22;58882;52.170;5.386;2024-02-15T10:10:18;18.70;59.40
70807;DHT22;58882;52.170;5.386;2024-02-15T10:12:48;18.70;59.40
70807;DHT22;58882;52.170;5.386;2024-02-15T10:17:58;18.70;59.20
70807;DHT22;58882;52.170;5.386;2024-02-15T10:20:26;18.70;59.20
70807;DHT22;58882;52.170;5.386;2024-02-15T10:23:14;18.70;59.30
70807;DHT22;58882;52.170;5.386;2024-02-15T10:25:44;18.70;59.40
70807;DHT22;58882;52.170;5.386;2024-02-15T10:28:12;18.70;59.30
70807;DHT22;58882;52.170;5.386;2024-02-15T10:30:41;18.70;59.30
70807;DHT22;58882;52.170;5.386;2024-02-15T10:33:29;18.70;59.40
70807;DHT22;58882;52.170;5.386;2024-02-15T10:38:41;18.70;59.20
70807;DHT22;58882;52.170;5.386;2024-02-15T10:41:09;18.70;59.20
70807;DHT22;58882;52.170;5.386;2024-02-15T10:43:37;18.70;59.20
70807;DHT22;58882;52.170;5.386;2024-02-15T10:46:06;18.70;59.30
70807;DHT22;58882;52.170;5.386;2024-02-15T10:48:36;18.70;59.30
70807;DHT22;58882;52.170;5.386;2024-02-15T10:51:09;18.70;59.20
70807;DHT22;58882;52.170;5.386;2024-02-15T10:53:39;18.70;59.10
70807;DHT22;58882;52.170;5.386;2024-02-15T10:56:17;18.80;59.10
70807;DHT22;58882;52.170;5.386;2024-02-15T10:59:19;18.80;59.10
70807;DHT22;58882;52.170;5.386;2024-02-15T11:01:50;18.80;59.10
70807;DHT22;58882;52.170;5.386;2024-02-15T11:04:22;18.80;58.80
70807;DHT22;58882;52.170;5.386;2024-02-15T11:06:55;18.90;58.80
70807;DHT22;58882;52.170;5.386;2024-02-15T11:09:23;18.90;58.60
70807;DHT22;58882;52.170;5.386;2024-02-15T11:11:50;19.00;58.50
70807;DHT22;58882;52.170;5.386;2024-02-15T11:14:24;19.10;58.50
70807;DHT22;58882;52.170;5.386;2024-02-15T11:16:51;19.10;58.20
70807;DHT22;58882;52.170;5.386;2024-02-15T11:22:19;19.20;57.90
70807;DHT22;58882;52.170;5.386;2024-02-15T11:24:51;19.30;57.60
70807;DHT22;58882;52.170;5.386;2024-02-15T11:27:28;19.30;57.60
70807;DHT22;58882;52.170;5.386;2024-02-15T11:30:00;19.30;57.60
70807;DHT22;58882;52.170;5.386;2024-02-15T11:32:48;19.40;57.50
70807;DHT22;58882;52.170;5.386;2024-02-15T11:35:24;19.40;57.40
70807;DHT22;58882;52.170;5.386;2024-02-15T11:37:55;19.40;57.30
70807;DHT22;58882;52.170;5.386;2024-02-15T11:46:13;19.50;57.10
70807;DHT22;58882;52.170;5.386;2024-02-15T11:48:48;19.50;57.00
70807;DHT22;58882;52.170;5.386;2024-02-15T11:54:07;19.50;57.00
70807;DHT22;58882;52.170;5.386;2024-02-15T11:59:16;19.60;57.00
70807;DHT22;58882;52.170;5.386;2024-02-15T12:01:56;19.60;57.00
70807;DHT22;58882;52.170;5.386;2024-02-15T12:04:46;19.60;56.80
70807;DHT22;58882;52.170;5.386;2024-02-15T12:07:32;19.60;56.90
70807;DHT22;58882;52.170;5.386;2024-02-15T12:10:18;19.60;57.00
70807;DHT22;58882;52.170;5.386;2024-02-15T12:13:04;19.60;57.00
70807;DHT22;58882;52.170;5.386;2024-02-15T12:15:59;19.70;57.00
70807;DHT22;58882;52.170;5.386;2024-02-15T12:18:45;19.70;57.00
70807;DHT22;58882;52.170;5.386;2024-02-15T12:21:18;19.70;56.90
70807;DHT22;58882;52.170;5.386;2024-02-15T12:23:45;19.70;56.90
70807;DHT22;58882;52.170;5.386;2024-02-15T12:26:13;19.80;56.90
70807;DHT22;58882;52.170;5.386;2024-02-15T12:28:41;19.80;56.80
70807;DHT22;58882;52.170;5.386;2024-02-15T12:31:13;19.80;56.70
70807;DHT22;58882;52.170;5.386;2024-02-15T12:33:40;19.90;56.70
70807;DHT22;58882;52.170;5.386;2024-02-15T12:36:09;19.90;56.60
70807;DHT22;58882;52.170;5.386;2024-02-15T12:38:36;19.90;56.50
70807;DHT22;58882;52.170;5.386;2024-02-15T12:41:20;20.00;56.40
70807;DHT22;58882;52.170;5.386;2024-02-15T12:43:52;20.00;56.40
70807;DHT22;58882;52.170;5.386;2024-02-15T12:46:20;20.10;56.40
70807;DHT22;58882;52.170;5.386;2024-02-15T12:48:47;20.10;57.30
70807;DHT22;58882;52.170;5.386;2024-02-15T12:51:16;20.10;56.20
70807;DHT22;58882;52.170;5.386;2024-02-15T12:53:43;20.10;56.20
70807;DHT22;58882;52.170;5.386;2024-02-15T12:56:10;20.20;56.20
70807;DHT22;58882;52.170;5.386;2024-02-15T12:58:46;20.20;56.20
70807;DHT22;58882;52.170;5.386;2024-02-15T13:01:13;20.30;56.20
70807;DHT22;58882;52.170;5.386;2024-02-15T13:03:40;20.40;56.10
70807;DHT22;58882;52.170;5.386;2024-02-15T13:06:07;20.50;55.90
70807;DHT22;58882;52.170;5.386;2024-02-15T13:08:34;20.50;55.80
70807;DHT22;58882;52.170;5.386;2024-02-15T13:11:03;20.60;55.60
70807;DHT22;58882;52.170;5.386;2024-02-15T13:13:30;20.70;55.40
70807;DHT22;58882;52.170;5.386;2024-02-15T13:15:57;20.70;55.20
70807;DHT22;58882;52.170;5.386;2024-02-15T13:18:24;20.70;55.10
70807;DHT22;58882;52.170;5.386;2024-02-15T13:20:53;20.80;55.00
70807;DHT22;58882;52.170;5.386;2024-02-15T13:23:20;20.80;54.90
70807;DHT22;58882;52.170;5.386;2024-02-15T13:25:52;20.80;54.80
70807;DHT22;58882;52.170;5.386;2024-02-15T13:28:19;20.80;54.70
70807;DHT22;58882;52.170;5.386;2024-02-15T13:30:46;20.90;54.70
70807;DHT22;58882;52.170;5.386;2024-02-15T13:33:16;20.90;54.60
70807;DHT22;58882;52.170;5.386;2024-02-15T13:35:44;21.00;54.50
70807;DHT22;58882;52.170;5.386;2024-02-15T13:38:11;21.10;54.30
70807;DHT22;58882;52.170;5.386;2024-02-15T13:40:42;21.10;54.10
70807;DHT22;58882;52.170;5.386;2024-02-15T13:43:11;21.20;54.00
70807;DHT22;58882;52.170;5.386;2024-02-15T13:45:41;21.30;53.80
70807;DHT22;58882;52.170;5.386;2024-02-15T13:48:08;21.30;53.50
70807;DHT22;58882;52.170;5.386;2024-02-15T13:50:37;21.40;53.30
70807;DHT22;58882;52.170;5.386;2024-02-15T13:53:06;21.40;53.10
70807;DHT22;58882;52.170;5.386;2024-02-15T13:55:33;21.40;54.00
70807;DHT22;58882;52.170;5.386;2024-02-15T13:58:01;21.50;52.90
70807;DHT22;58882;52.170;5.386;2024-02-15T14:00:28;21.50;52.70
70807;DHT22;58882;52.170;5.386;2024-02-15T14:03:02;21.50;52.60
70807;DHT22;58882;52.170;5.386;2024-02-15T14:05:30;21.60;52.50
70807;DHT22;58882;52.170;5.386;2024-02-15T14:08:01;21.60;52.40
70807;DHT22;58882;52.170;5.386;2024-02-15T14:10:29;21.60;52.30
70807;DHT22;58882;52.170;5.386;2024-02-15T14:12:57;21.60;52.30
70807;DHT22;58882;52.170;5.386;2024-02-15T14:15:29;21.60;52.10
70807;DHT22;58882;52.170;5.386;2024-02-15T14:17:56;21.70;52.00
70807;DHT22;58882;52.170;5.386;2024-02-15T14:20:24;21.70;51.80
70807;DHT22;58882;52.170;5.386;2024-02-15T14:22:51;21.70;51.80
70807;DHT22;58882;52.170;5.386;2024-02-15T14:25:24;21.70;51.90
70807;DHT22;58882;52.170;5.386;2024-02-15T14:27:55;21.70;52.00
70807;DHT22;58882;52.170;5.386;2024-02-15T14:30:24;21.70;52.00
70807;DHT22;58882;52.170;5.386;2024-02-15T14:33:09;21.70;52.00
70807;DHT22;58882;52.170;5.386;2024-02-15T14:35:45;21.60;51.90
70807;DHT22;58882;52.170;5.386;2024-02-15T14:38:13;21.60;51.90
70807;DHT22;58882;52.170;5.386;2024-02-15T14:40:42;21.60;52.00
70807;DHT22;58882;52.170;5.386;2024-02-15T14:43:22;21.60;52.00
70807;DHT22;58882;52.170;5.386;2024-02-15T14:45:49;21.50;51.80
70807;DHT22;58882;52.170;5.386;2024-02-15T14:48:17;21.50;51.80
70807;DHT22;58882;52.170;5.386;2024-02-15T14:50:47;21.50;51.80
70807;DHT22;58882;52.170;5.386;2024-02-15T14:53:18;21.50;51.90
70807;DHT22;58882;52.170;5.386;2024-02-15T14:55:45;21.50;51.90
70807;DHT22;58882;52.170;5.386;2024-02-15T14:58:16;21.50;51.90
70807;DHT22;58882;52.170;5.386;2024-02-15T15:00:45;21.40;51.90
70807;DHT22;58882;52.170;5.386;2024-02-15T15:03:14;21.40;51.90
70807;DHT22;58882;52.170;5.386;2024-02-15T15:05:42;21.40;51.90
70807;DHT22;58882;52.170;5.386;2024-02-15T15:08:28;21.40;52.00
70807;DHT22;58882;52.170;5.386;2024-02-15T15:11:14;21.40;52.10
70807;DHT22;58882;52.170;5.386;2024-02-15T15:14:00;21.40;52.20
70807;DHT22;58882;52.170;5.386;2024-02-15T15:16:26;21.40;52.30
70807;DHT22;58882;52.170;5.386;2024-02-15T15:18:55;21.40;52.30
70807;DHT22;58882;52.170;5.386;2024-02-15T15:21:23;21.40;52.30
70807;DHT22;58882;52.170;5.386;2024-02-15T15:23:51;21.30;52.30
70807;DHT22;58882;52.170;5.386;2024-02-15T15:26:22;21.30;52.30
70807;DHT22;58882;52.170;5.386;2024-02-15T15:28:49;21.30;52.40
70807;DHT22;58882;52.170;5.386;2024-02-15T15:31:17;21.30;52.60
70807;DHT22;58882;52.170;5.386;2024-02-15T15:33:47;21.30;52.50
70807;DHT22;58882;52.170;5.386;2024-02-15T15:36:16;21.30;52.60
70807;DHT22;58882;52.170;5.386;2024-02-15T15:38:45;21.20;52.60
70807;DHT22;58882;52.170;5.386;2024-02-15T15:41:12;21.20;52.70
70807;DHT22;58882;52.170;5.386;2024-02-15T15:43:39;21.20;52.80
70807;DHT22;58882;52.170;5.386;2024-02-15T15:46:12;21.30;52.80
70807;DHT22;58882;52.170;5.386;2024-02-15T15:48:39;21.20;52.80
70807;DHT22;58882;52.170;5.386;2024-02-15T15:51:06;21.30;52.90
70807;DHT22;58882;52.170;5.386;2024-02-15T15:53:36;21.30;52.90
70807;DHT22;58882;52.170;5.386;2024-02-15T15:56:06;21.20;52.90
70807;DHT22;58882;52.170;5.386;2024-02-15T15:58:34;21.20;53.00
70807;DHT22;58882;52.170;5.386;2024-02-15T16:01:01;21.20;53.10
70807;DHT22;58882;52.170;5.386;2024-02-15T16:03:28;21.20;53.20
70807;DHT22;58882;52.170;5.386;2024-02-15T16:05:55;21.20;53.20